Time;durP1;ratioP1;P1;durP2;ratioP2;P2;SDS_P1;SDS_P2;PMS_P1;PMS_P2;Temp;Humidity;BMP_temperature;BMP_pressure;BME280_temperature;BME280_humidity;BME280_pressure;Samples;Min_cycle;Max_cycle;Signal;HPM_P1;HPM_P2
2021/07/02 00:00:40;;;;;;;2.00;1.50;;;15.80;90.90;;;;;;5052659;28;20025;-82
2021/07/02 00:03:05;;;;;;;2.30;1.60;;;15.80;90.90;;;;;;5052653;28;20032;-81
2021/07/02 00:05:31;;;;;;;2.88;1.70;;;15.80;90.90;;;;;;5034654;28;20028;-81
2021/07/02 00:07:56;;;;;;;2.10;1.55;;;15.80;90.90;;;;;;5052523;28;20040;-82
2021/07/02 00:10:22;;;;;;;2.15;1.60;;;15.80;90.90;;;;;;5052552;28;20032;-82
2021/07/02 00:12:47;;;;;;;3.35;2.10;;;15.80;90.90;;;;;;5052038;28;20030;-82
2021/07/02 00:15:13;;;;;;;2.78;1.80;;;15.80;90.90;;;;;;5052308;28;20033;-83
2021/07/02 00:17:39;;;;;;;3.25;2.03;;;15.80;91.00;;;;;;5034848;28;20373;-82
2021/07/02 00:20:05;;;;;;;2.05;1.75;;;15.80;91.00;;;;;;5034627;28;20025;-82
2021/07/02 00:22:33;;;;;;;2.40;1.80;;;15.80;91.00;;;;;;5052374;28;20494;-83
2021/07/02 00:25:03;;;;;;;2.22;1.60;;;15.80;91.00;;;;;;5053286;28;20025;-83
2021/07/02 00:27:28;;;;;;;2.63;2.03;;;15.80;91.00;;;;;;5055595;28;20017;-82
2021/07/02 00:29:54;;;;;;;1.65;1.50;;;15.90;91.00;;;;;;5055876;28;20359;-82
2021/07/02 00:32:19;;;;;;;3.22;2.25;;;15.90;91.00;;;;;;5055955;28;20021;-81
2021/07/02 00:34:45;;;;;;;3.50;2.35;;;15.90;91.00;;;;;;5037740;28;20477;-82
2021/07/02 00:37:10;;;;;;;3.55;2.00;;;15.90;91.00;;;;;;5055700;28;20029;-81
2021/07/02 00:39:36;;;;;;;3.10;1.73;;;15.90;91.00;;;;;;5055759;28;20032;-82
2021/07/02 00:42:01;;;;;;;2.47;1.65;;;15.90;91.10;;;;;;5054971;28;20017;-82
2021/07/02 00:44:47;;;;;;;2.58;1.83;;;15.80;91.00;;;;;;5055649;28;20111;-83
2021/07/02 00:47:14;;;;;;;2.80;2.10;;;15.90;91.00;;;;;;5055770;28;20017;-81
2021/07/02 00:49:40;;;;;;;3.13;2.00;;;15.90;91.10;;;;;;5055556;28;20385;-83
2021/07/02 00:52:07;;;;;;;3.78;2.00;;;15.80;91.00;;;;;;5055572;28;20504;-82
2021/07/02 00:54:36;;;;;;;3.15;2.47;;;15.90;91.10;;;;;;5055652;28;20033;-83
2021/07/02 00:57:03;;;;;;;2.20;1.60;;;15.90;91.10;;;;;;5055053;28;20021;-82
2021/07/02 00:59:29;;;;;;;2.63;1.70;;;15.90;91.10;;;;;;5055277;28;20025;-82
2021/07/02 01:01:55;;;;;;;1.95;1.50;;;15.80;91.10;;;;;;5055469;28;20021;-82
2021/07/02 01:04:23;;;;;;;2.55;1.73;;;15.90;91.10;;;;;;5037501;28;20513;-83
2021/07/02 01:06:49;;;;;;;2.95;1.90;;;15.90;91.10;;;;;;5055502;28;20466;-83
2021/07/02 01:09:14;;;;;;;2.83;1.80;;;15.80;91.00;;;;;;5037860;28;20112;-84
2021/07/02 01:11:40;;;;;;;3.95;2.30;;;15.80;91.10;;;;;;5055130;28;20021;-83
2021/07/02 01:14:05;;;;;;;2.38;1.70;;;15.80;91.10;;;;;;5055297;28;20013;-83
2021/07/02 01:16:31;;;;;;;2.78;1.77;;;15.80;91.10;;;;;;5055372;28;20528;-84
2021/07/02 01:18:57;;;;;;;2.58;1.95;;;15.70;91.10;;;;;;5037372;28;20492;-84
2021/07/02 01:21:23;;;;;;;2.60;1.80;;;15.80;91.10;;;;;;5055317;28;20029;-83
2021/07/02 01:23:48;;;;;;;2.88;2.00;;;15.70;91.10;;;;;;5055382;28;20021;-85
2021/07/02 01:26:15;;;;;;;2.65;1.73;;;15.70;91.10;;;;;;5054529;28;20103;-82
2021/07/02 01:28:42;;;;;;;2.95;1.90;;;15.70;91.10;;;;;;5055104;28;20024;-82
2021/07/02 01:31:07;;;;;;;3.33;2.22;;;15.60;91.20;;;;;;5037128;28;20047;-83
2021/07/02 01:33:34;;;;;;;3.13;2.15;;;15.70;91.20;;;;;;5055078;28;20017;-82
2021/07/02 01:36:07;;;;;;;2.78;2.05;;;15.60;91.20;;;;;;5054133;28;20029;-82
2021/07/02 01:38:34;;;;;;;2.78;1.92;;;15.60;91.20;;;;;;5054225;28;20385;-83
2021/07/02 01:40:59;;;;;;;4.22;2.28;;;15.60;91.20;;;;;;5054285;28;20029;-83
2021/07/02 01:43:26;;;;;;;4.20;2.30;;;15.60;91.50;;;;;;5036640;28;20055;-83
2021/07/02 01:45:53;;;;;;;2.85;1.80;;;15.60;91.20;;;;;;5054459;28;20112;-83
2021/07/02 01:48:19;;;;;;;3.03;2.03;;;15.60;91.20;;;;;;5036512;28;20067;-83
2021/07/02 01:50:45;;;;;;;3.10;1.90;;;15.60;91.20;;;;;;5036473;28;20017;-82
2021/07/02 01:53:10;;;;;;;4.90;2.20;;;15.60;91.20;;;;;;5054636;28;20017;-83
2021/07/02 01:55:36;;;;;;;2.33;1.80;;;15.60;91.20;;;;;;5035799;28;20462;-82
2021/07/02 01:58:02;;;;;;;2.47;1.80;;;15.60;91.30;;;;;;5054310;28;20025;-82
2021/07/02 02:00:27;;;;;;;3.28;2.00;;;15.60;91.20;;;;;;5054390;28;20173;-82
2021/07/02 02:02:53;;;;;;;2.83;2.08;;;15.60;91.20;;;;;;5054142;28;20021;-82
2021/07/02 02:05:18;;;;;;;3.70;2.20;;;15.60;91.20;;;;;;5054425;28;20036;-83
2021/07/02 02:07:44;;;;;;;3.47;2.03;;;15.60;91.10;;;;;;5036194;28;20036;-84
2021/07/02 02:10:10;;;;;;;3.50;2.47;;;15.60;91.10;;;;;;5053746;28;20095;-81
2021/07/02 02:12:36;;;;;;;3.55;2.08;;;15.60;91.10;;;;;;5035895;28;20024;-81
2021/07/02 02:15:02;;;;;;;2.40;2.15;;;15.50;91.10;;;;;;5053813;28;20039;-81
2021/07/02 02:17:28;;;;;;;2.92;2.17;;;15.50;91.20;;;;;;5054091;28;20025;-81
2021/07/02 02:19:53;;;;;;;2.95;2.00;;;15.50;91.10;;;;;;5035982;28;20500;-82
2021/07/02 02:22:22;;;;;;;3.38;2.10;;;15.50;91.10;;;;;;5053332;28;20025;-81
2021/07/02 02:24:47;;;;;;;2.15;1.63;;;15.50;91.10;;;;;;5053775;28;20731;-81
2021/07/02 02:27:13;;;;;;;2.30;1.95;;;15.50;91.10;;;;;;5053629;28;20021;-82
2021/07/02 02:29:39;;;;;;;3.03;2.00;;;15.50;91.10;;;;;;5053652;28;20036;-82
2021/07/02 02:32:06;;;;;;;3.08;1.98;;;15.50;91.10;;;;;;5053670;28;20036;-82
2021/07/02 02:34:31;;;;;;;2.75;1.85;;;15.50;91.10;;;;;;5053343;28;20087;-82
2021/07/02 02:36:57;;;;;;;2.40;1.50;;;15.50;91.10;;;;;;5053194;28;20025;-82
2021/07/02 02:39:23;;;;;;;2.50;1.70;;;15.50;91.10;;;;;;5053556;28;20033;-82
2021/07/02 02:41:48;;;;;;;1.70;1.60;;;15.50;91.10;;;;;;5053417;28;20111;-82
2021/07/02 02:44:14;;;;;;;2.20;1.70;;;15.50;91.10;;;;;;5053258;28;20106;-83
2021/07/02 02:46:39;;;;;;;3.45;2.15;;;15.50;91.10;;;;;;5053359;28;20103;-82
2021/07/02 02:49:05;;;;;;;3.25;1.83;;;15.50;91.10;;;;;;5053162;28;20031;-82
2021/07/02 02:51:30;;;;;;;2.08;1.55;;;15.50;91.10;;;;;;5035216;28;20017;-82
2021/07/02 02:53:56;;;;;;;2.92;1.58;;;15.40;91.10;;;;;;5053345;28;20478;-83
2021/07/02 02:56:21;;;;;;;2.67;1.85;;;15.40;91.10;;;;;;5035506;28;20064;-83
2021/07/02 02:58:47;;;;;;;2.33;1.77;;;15.40;91.10;;;;;;5053107;28;20378;-82
2021/07/02 03:01:13;;;;;;;2.83;1.75;;;15.40;91.10;;;;;;5053265;28;20029;-83
2021/07/02 03:03:38;;;;;;;2.30;1.67;;;15.30;91.10;;;;;;5053256;28;20023;-81
2021/07/02 03:06:04;;;;;;;3.25;2.17;;;15.30;91.10;;;;;;5052831;28;20039;-83
2021/07/02 03:08:30;;;;;;;2.40;1.60;;;15.30;91.20;;;;;;5053287;28;20377;-83
2021/07/02 03:10:55;;;;;;;2.13;1.70;;;15.20;91.10;;;;;;5053214;28;20094;-83
2021/07/02 03:13:21;;;;;;;2.47;1.73;;;15.20;91.20;;;;;;5035010;28;20048;-83
2021/07/02 03:15:46;;;;;;;3.45;2.20;;;15.20;91.20;;;;;;5053159;28;20033;-83
2021/07/02 03:18:12;;;;;;;2.15;1.75;;;15.10;91.20;;;;;;5053301;28;20071;-83
2021/07/02 03:20:39;;;;;;;2.40;1.60;;;15.10;91.20;;;;;;5052687;28;20053;-83
2021/07/02 03:23:05;;;;;;;3.70;2.97;;;15.00;91.30;;;;;;5053120;28;20013;-83
2021/07/02 03:25:30;;;;;;;3.17;2.10;;;15.00;91.30;;;;;;5053013;28;20527;-83
2021/07/02 03:27:55;;;;;;;1.95;1.67;;;15.00;91.30;;;;;;5052806;28;20512;-82
2021/07/02 03:30:21;;;;;;;2.85;1.88;;;15.00;91.30;;;;;;5053057;28;20025;-83
2021/07/02 03:32:47;;;;;;;2.70;2.00;;;14.90;91.30;;;;;;5053077;28;20028;-83
2021/07/02 03:35:12;;;;;;;2.65;1.95;;;14.90;91.30;;;;;;5052466;28;20060;-84
2021/07/02 03:37:38;;;;;;;1.75;1.30;;;15.00;91.20;;;;;;5053055;28;20389;-83
2021/07/02 03:40:09;;;;;;;1.83;1.48;;;14.90;91.20;;;;;;5053073;28;20115;-83
2021/07/02 03:42:34;;;;;;;3.45;1.95;;;15.00;91.20;;;;;;5052712;28;20554;-83
2021/07/02 03:45:00;;;;;;;2.28;1.88;;;15.00;91.20;;;;;;5053207;28;20029;-84
2021/07/02 03:47:26;;;;;;;2.15;1.75;;;15.00;91.20;;;;;;5053103;28;20017;-83
2021/07/02 03:49:51;;;;;;;2.03;1.60;;;15.00;91.10;;;;;;5052442;28;20037;-84
2021/07/02 03:52:17;;;;;;;2.42;1.67;;;15.00;91.10;;;;;;5052784;28;20020;-84
2021/07/02 03:54:42;;;;;;;2.58;1.67;;;15.00;91.10;;;;;;5052740;28;20040;-83
2021/07/02 03:57:11;;;;;;;2.83;1.70;;;15.10;91.10;;;;;;5034833;28;20021;-83
2021/07/02 03:59:49;;;;;;;2.22;1.42;;;15.10;91.10;;;;;;5052924;28;20024;-82
2021/07/02 04:02:15;;;;;;;2.25;1.60;;;15.20;91.00;;;;;;5056657;28;20028;-83
2021/07/02 04:04:41;;;;;;;2.95;2.08;;;15.20;91.10;;;;;;5056337;28;20021;-83
2021/07/02 04:07:10;;;;;;;2.17;1.70;;;15.20;91.00;;;;;;5056432;28;20025;-83
2021/07/02 04:09:36;;;;;;;2.78;2.10;;;15.20;91.00;;;;;;5056452;28;20053;-83
2021/07/02 04:12:02;;;;;;;2.08;1.67;;;15.20;91.00;;;;;;5056360;28;20032;-82
2021/07/02 04:14:29;;;;;;;2.13;1.90;;;15.30;91.10;;;;;;5056261;28;20075;-83
2021/07/02 04:16:56;;;;;;;1.88;1.70;;;15.30;91.00;;;;;;5056497;28;20078;-83
2021/07/02 04:19:21;;;;;;;3.42;2.53;;;15.30;91.10;;;;;;5055844;28;20025;-82
2021/07/02 04:21:47;;;;;;;2.78;1.63;;;15.30;91.10;;;;;;5056121;28;20029;-82
2021/07/02 04:24:13;;;;;;;3.63;2.00;;;15.30;91.10;;;;;;5056096;28;20017;-83
2021/07/02 04:26:39;;;;;;;2.95;1.73;;;15.30;91.10;;;;;;5056080;28;20100;-83
2021/07/02 04:29:05;;;;;;;2.47;1.73;;;15.30;91.10;;;;;;5056027;28;20025;-83
2021/07/02 04:31:30;;;;;;;2.85;2.03;;;15.30;91.10;;;;;;5055950;28;20499;-82
2021/07/02 04:33:56;;;;;;;4.03;2.35;;;15.30;91.00;;;;;;5055623;28;20021;-82
2021/07/02 04:36:22;;;;;;;3.15;2.13;;;15.30;91.00;;;;;;5055774;28;20501;-83
2021/07/02 04:38:47;;;;;;;2.33;1.70;;;15.30;91.00;;;;;;5055878;28;20025;-84
2021/07/02 04:41:13;;;;;;;2.83;2.08;;;15.40;91.00;;;;;;5055726;28;20021;-83
2021/07/02 04:43:39;;;;;;;3.70;2.50;;;15.40;91.00;;;;;;5055701;28;20379;-83
2021/07/02 04:46:04;;;;;;;2.88;2.22;;;15.40;91.00;;;;;;5055755;28;20452;-83
2021/07/02 04:48:30;;;;;;;3.85;2.60;;;15.30;91.00;;;;;;5055285;28;20028;-83
2021/07/02 04:50:55;;;;;;;3.05;2.28;;;15.30;91.00;;;;;;5055593;28;20386;-82
2021/07/02 04:53:21;;;;;;;4.20;2.53;;;15.40;91.00;;;;;;5055392;28;20091;-82
2021/07/02 04:55:47;;;;;;;4.28;2.65;;;15.40;91.00;;;;;;5055555;28;20068;-83
2021/07/02 04:58:13;;;;;;;3.85;2.35;;;15.30;91.00;;;;;;5055511;28;20056;-82
2021/07/02 05:00:39;;;;;;;2.90;2.17;;;15.30;91.00;;;;;;5037470;28;20052;-82
2021/07/02 05:03:05;;;;;;;3.00;2.20;;;15.30;91.00;;;;;;5054912;28;20020;-82
2021/07/02 05:05:31;;;;;;;3.67;2.47;;;15.30;91.10;;;;;;5055462;28;20029;-81
2021/07/02 05:07:58;;;;;;;3.33;2.08;;;15.30;91.10;;;;;;5055394;28;20025;-82
2021/07/02 05:10:24;;;;;;;2.75;1.77;;;15.30;91.10;;;;;;5037374;28;20074;-82
2021/07/02 05:12:49;;;;;;;3.35;1.92;;;15.30;91.00;;;;;;5054945;28;20095;-82
2021/07/02 05:15:15;;;;;;;3.67;2.05;;;15.30;91.00;;;;;;5055043;28;20043;-81
2021/07/02 05:17:41;;;;;;;2.80;2.08;;;15.30;91.00;;;;;;5054668;28;20028;-82
2021/07/02 05:20:07;;;;;;;3.90;3.03;;;15.30;91.00;;;;;;5055188;28;20600;-82
2021/07/02 05:22:32;;;;;;;2.20;1.75;;;15.40;91.00;;;;;;5037096;28;20017;-82
2021/07/02 05:24:58;;;;;;;3.75;2.00;;;15.40;91.00;;;;;;5055099;28;20512;-83
2021/07/02 05:27:23;;;;;;;4.10;2.08;;;15.40;90.90;;;;;;5054998;28;20015;-83
2021/07/02 05:29:49;;;;;;;2.90;2.00;;;15.40;90.90;;;;;;5055094;28;20028;-84
2021/07/02 05:32:14;;;;;;;3.22;2.40;;;15.40;90.90;;;;;;5054461;28;20028;-83
2021/07/02 05:34:40;;;;;;;4.20;2.90;;;15.40;90.90;;;;;;5054900;28;20036;-81
2021/07/02 05:37:06;;;;;;;3.10;1.40;;;15.40;90.90;;;;;;5054825;28;20021;-81
2021/07/02 05:39:31;;;;;;;2.75;2.20;;;15.40;91.00;;;;;;5054777;28;20021;-81
2021/07/02 05:41:57;;;;;;;4.05;2.00;;;15.30;91.00;;;;;;5054584;28;20025;-83
2021/07/02 05:44:23;;;;;;;2.22;1.52;;;15.40;91.00;;;;;;5055382;28;20017;-87
2021/07/02 05:46:48;;;;;;;3.03;1.80;;;15.40;91.00;;;;;;5054940;28;20040;-85
2021/07/02 05:49:15;;;;;;;3.97;1.85;;;15.40;91.00;;;;;;5054885;28;20025;-85
2021/07/02 05:51:41;;;;;;;3.90;2.58;;;15.40;91.00;;;;;;5054494;28;20021;-78
2021/07/02 05:54:08;;;;;;;2.97;1.73;;;15.50;90.90;;;;;;5054288;28;20416;-80
2021/07/02 05:56:33;;;;;;;3.65;2.55;;;15.50;90.90;;;;;;5054182;28;20025;-81
2021/07/02 05:59:00;;;;;;;2.67;1.95;;;15.50;90.90;;;;;;5036419;28;20033;-81
2021/07/02 06:01:26;;;;;;;4.18;2.40;;;15.60;90.90;;;;;;5053746;28;20021;-82
2021/07/02 06:03:52;;;;;;;2.55;1.70;;;15.60;90.80;;;;;;5054266;28;20029;-81
2021/07/02 06:06:19;;;;;;;3.88;2.13;;;15.70;90.90;;;;;;5053921;28;20029;-78
2021/07/02 06:08:45;;;;;;;4.72;2.38;;;15.70;90.80;;;;;;5054012;28;20414;-79
2021/07/02 06:11:11;;;;;;;4.07;2.30;;;15.70;90.80;;;;;;5054052;28;20104;-79
2021/07/02 06:13:37;;;;;;;3.95;2.78;;;15.70;90.80;;;;;;5053810;28;20052;-79
2021/07/02 06:16:04;;;;;;;3.28;2.45;;;15.70;90.80;;;;;;5053460;28;20086;-78
2021/07/02 06:18:29;;;;;;;2.58;2.25;;;15.70;90.80;;;;;;5053901;28;20027;-79
2021/07/02 06:20:55;;;;;;;3.80;2.17;;;15.80;90.80;;;;;;5053855;28;20028;-80
2021/07/02 06:23:21;;;;;;;3.63;2.10;;;15.90;90.80;;;;;;5035283;28;20021;-78
2021/07/02 06:25:47;;;;;;;3.65;2.25;;;15.90;90.70;;;;;;5053773;28;20367;-79
2021/07/02 06:28:14;;;;;;;3.75;2.67;;;16.00;90.70;;;;;;5053874;28;20021;-82
2021/07/02 06:30:41;;;;;;;4.20;2.60;;;16.00;90.70;;;;;;5053288;28;20066;-79
2021/07/02 06:33:07;;;;;;;4.78;2.70;;;16.10;90.70;;;;;;5053699;28;20021;-79
2021/07/02 06:35:32;;;;;;;3.15;2.53;;;16.20;90.70;;;;;;5053509;28;20393;-79
2021/07/02 06:37:58;;;;;;;4.63;2.53;;;16.40;90.60;;;;;;5053502;28;20031;-78
2021/07/02 06:40:23;;;;;;;3.33;2.20;;;16.60;90.50;;;;;;5053378;28;20025;-79
2021/07/02 06:42:49;;;;;;;3.55;2.72;;;16.80;90.40;;;;;;5053215;28;20049;-78
2021/07/02 06:45:16;;;;;;;4.35;2.47;;;16.90;90.20;;;;;;5052977;28;20025;-78
2021/07/02 06:47:56;;;;;;;3.65;2.22;;;17.00;90.10;;;;;;5053383;28;20013;-79
2021/07/02 06:50:22;;;;;;;3.15;2.42;;;17.00;90.20;;;;;;5053617;28;20024;-77
2021/07/02 06:52:48;;;;;;;4.25;2.67;;;17.00;90.20;;;;;;5053266;28;20425;-78
2021/07/02 06:55:14;;;;;;;3.03;2.00;;;17.00;90.30;;;;;;5053158;28;20124;-78
2021/07/02 06:57:39;;;;;;;3.20;2.15;;;17.10;90.40;;;;;;5035395;28;20060;-79
2021/07/02 07:00:05;;;;;;;2.78;1.80;;;17.10;90.40;;;;;;5052823;28;20017;-79
2021/07/02 07:02:31;;;;;;;3.60;2.30;;;17.10;90.40;;;;;;5053058;28;20021;-79
2021/07/02 07:04:56;;;;;;;1.92;1.70;;;17.10;90.40;;;;;;5053108;28;20075;-79
2021/07/02 07:07:22;;;;;;;2.45;2.13;;;17.20;90.40;;;;;;5053160;28;20027;-80
2021/07/02 07:09:47;;;;;;;2.97;1.95;;;17.20;90.40;;;;;;5053145;28;20119;-78
2021/07/02 07:12:13;;;;;;;5.18;2.65;;;17.20;90.40;;;;;;5050664;28;20021;-78
2021/07/02 07:14:38;;;;;;;2.72;1.98;;;17.30;90.30;;;;;;5048651;28;20481;-78
2021/07/02 07:17:09;;;;;;;2.97;1.80;;;17.40;90.30;;;;;;5052309;28;20457;-78
2021/07/02 07:19:35;;;;;;;3.28;1.95;;;17.50;90.30;;;;;;5053086;28;20025;-78
2021/07/02 07:22:01;;;;;;;4.03;2.92;;;17.50;90.20;;;;;;5051046;28;20021;-78
2021/07/02 07:24:27;;;;;;;3.70;2.30;;;17.60;90.20;;;;;;5053193;28;20025;-78
2021/07/02 07:26:52;;;;;;;4.32;2.30;;;17.70;90.20;;;;;;5052206;28;20026;-79
2021/07/02 07:29:18;;;;;;;4.60;2.50;;;17.70;90.20;;;;;;5052905;28;20569;-78
2021/07/02 07:31:43;;;;;;;2.65;2.00;;;17.90;90.40;;;;;;5053228;28;20547;-78
2021/07/02 07:34:09;;;;;;;4.00;2.53;;;18.20;89.90;;;;;;5054122;28;20021;-79
2021/07/02 07:36:36;;;;;;;4.05;2.38;;;18.30;89.50;;;;;;5056787;28;20478;-77
2021/07/02 07:39:03;;;;;;;4.18;2.97;;;18.40;89.40;;;;;;5056957;28;20017;-78
2021/07/02 07:41:28;;;;;;;4.15;2.47;;;18.50;89.30;;;;;;5056300;28;20040;-79
2021/07/02 07:43:54;;;;;;;2.83;2.10;;;18.60;89.30;;;;;;5056866;28;20053;-78
2021/07/02 07:46:20;;;;;;;5.10;3.45;;;18.60;89.40;;;;;;5056820;28;20025;-78
2021/07/02 07:48:46;;;;;;;2.72;1.95;;;18.60;89.20;;;;;;5056759;28;20066;-79
2021/07/02 07:53:40;;;;;;;3.85;3.05;;;18.70;89.50;;;;;;5056536;28;20021;-77
2021/07/02 07:56:05;;;;;;;3.15;2.33;;;18.80;89.20;;;;;;5056313;28;20537;-77
2021/07/02 07:58:31;;;;;;;4.53;2.72;;;18.80;89.10;;;;;;5056480;28;20040;-78
2021/07/02 08:00:56;;;;;;;4.38;2.80;;;18.90;89.00;;;;;;5054266;28;20032;-78
2021/07/02 08:03:22;;;;;;;4.38;2.42;;;18.90;88.80;;;;;;5050870;28;20067;-77
2021/07/02 08:05:47;;;;;;;3.67;2.63;;;19.00;89.00;;;;;;5051063;28;20466;-75
2021/07/02 08:08:14;;;;;;;5.10;3.00;;;19.00;89.00;;;;;;5053877;28;20056;-77
2021/07/02 08:10:40;;;;;;;4.00;2.78;;;19.10;88.80;;;;;;5055850;28;20025;-76
2021/07/02 08:13:05;;;;;;;4.13;2.67;;;19.20;88.60;;;;;;5038201;28;20032;-76
2021/07/02 08:15:31;;;;;;;3.97;2.40;;;19.20;88.70;;;;;;5055926;28;20040;-77
2021/07/02 08:17:56;;;;;;;4.20;2.35;;;19.30;88.80;;;;;;5056113;28;20474;-79
2021/07/02 08:20:22;;;;;;;4.22;2.30;;;19.30;88.70;;;;;;5055993;28;20032;-77
2021/07/02 08:22:47;;;;;;;3.88;2.70;;;19.30;88.70;;;;;;5056098;28;20028;-77
2021/07/02 08:25:13;;;;;;;6.22;3.90;;;19.40;88.80;;;;;;5055462;28;20401;-78
2021/07/02 08:30:22;;;;;;;4.13;2.95;;;19.30;88.50;;;;;;5056219;28;20104;-77
2021/07/02 08:32:48;;;;;;;3.80;2.88;;;19.30;88.70;;;;;;5037407;28;20029;-77
2021/07/02 08:35:15;;;;;;;4.97;3.50;;;19.30;88.50;;;;;;5055686;28;20041;-77
2021/07/02 08:37:41;;;;;;;4.10;2.95;;;19.20;88.70;;;;;;5055797;28;20064;-77
2021/07/02 08:40:07;;;;;;;4.35;2.70;;;19.20;88.70;;;;;;5055294;28;20025;-76
2021/07/02 08:42:32;;;;;;;4.60;3.22;;;19.30;88.80;;;;;;5055320;28;20041;-77
2021/07/02 08:44:58;;;;;;;2.92;2.17;;;19.50;88.60;;;;;;5037763;28;20075;-76
2021/07/02 08:47:24;;;;;;;3.80;2.47;;;19.60;88.50;;;;;;5036889;28;20029;-77
2021/07/02 08:49:50;;;;;;;3.58;2.50;;;19.80;88.30;;;;;;5037624;28;20033;-77
2021/07/02 08:52:15;;;;;;;4.10;3.10;;;19.80;87.90;;;;;;5055386;28;20020;-77
2021/07/02 08:54:41;;;;;;;3.40;2.22;;;19.70;87.90;;;;;;5054921;28;20523;-77
2021/07/02 08:57:07;;;;;;;4.05;2.97;;;19.70;88.20;;;;;;5055243;28;20039;-77
2021/07/02 08:59:32;;;;;;;3.97;2.97;;;19.60;88.40;;;;;;5055299;28;20031;-76
2021/07/02 09:01:58;;;;;;;5.20;3.10;;;19.60;88.40;;;;;;5055093;28;20386;-77
2021/07/02 09:04:34;;;;;;;5.00;3.30;;;19.60;88.20;;;;;;5055263;28;20099;-77
2021/07/02 09:07:08;;;;;;;4.13;3.17;;;19.60;88.00;;;;;;5037255;28;20608;-76
2021/07/02 09:09:55;;;;;;;2.97;2.55;;;19.70;88.10;;;;;;5054237;28;20021;-76
2021/07/02 09:12:29;;;;;;;4.53;2.88;;;19.90;88.00;;;;;;5054899;28;20047;-77
2021/07/02 09:15:04;;;;;;;5.47;4.05;;;20.00;87.70;;;;;;5055024;28;20482;-78
2021/07/02 09:17:31;;;;;;;4.18;3.10;;;20.10;87.00;;;;;;5054803;28;20055;-77
2021/07/02 09:20:14;;;;;;;4.28;3.08;;;19.90;87.60;;;;;;5046940;28;20428;-76
2021/07/02 09:23:08;;;;;;;4.32;3.45;;;19.80;87.80;;;;;;5014464;28;20044;-76
2021/07/02 09:25:50;;;;;;;4.43;3.15;;;19.70;88.10;;;;;;5030317;28;20487;-75
2021/07/02 09:28:18;;;;;;;3.00;2.13;;;19.80;88.80;;;;;;5032277;28;20025;-75
2021/07/02 09:30:49;;;;;;;3.20;2.80;;;19.90;88.30;;;;;;5032039;28;20034;-75
2021/07/02 09:33:17;;;;;;;3.63;2.08;;;20.10;87.80;;;;;;5031948;28;20414;-75
2021/07/02 09:35:50;;;;;;;3.78;2.88;;;20.30;87.70;;;;;;5051279;28;20029;-76
2021/07/02 09:38:18;;;;;;;3.10;2.20;;;20.50;87.40;;;;;;5052554;28;20025;-78
2021/07/02 09:40:46;;;;;;;2.33;1.92;;;20.60;87.10;;;;;;5054398;28;20363;-76
2021/07/02 09:43:19;;;;;;;3.42;2.92;;;20.60;87.40;;;;;;5054104;28;20131;-78
2021/07/02 09:45:53;;;;;;;3.17;2.17;;;20.70;86.90;;;;;;5054505;28;20033;-75
2021/07/02 09:48:28;;;;;;;3.55;2.50;;;20.70;87.30;;;;;;5069583;28;20390;-77
2021/07/02 09:50:56;;;;;;;2.25;1.80;;;20.80;87.10;;;;;;5054472;28;20025;-75
2021/07/02 09:53:25;;;;;;;2.97;2.65;;;20.80;87.00;;;;;;5052726;28;20115;-75
2021/07/02 09:55:53;;;;;;;3.95;3.00;;;20.80;87.10;;;;;;5054267;28;20117;-75
2021/07/02 09:58:25;;;;;;;4.72;3.00;;;20.70;87.40;;;;;;5052935;28;20028;-77
2021/07/02 10:00:53;;;;;;;4.07;2.60;;;20.50;87.10;;;;;;5052864;28;20131;-75
2021/07/02 10:03:24;;;;;;;3.88;2.83;;;20.20;87.50;;;;;;5053972;28;20025;-74
2021/07/02 10:05:58;;;;;;;4.32;2.80;;;20.10;87.90;;;;;;5054110;28;20056;-75
2021/07/02 10:08:27;;;;;;;3.10;2.53;;;20.00;87.80;;;;;;5053394;28;20487;-75
2021/07/02 10:10:55;;;;;;;5.97;3.45;;;19.90;87.90;;;;;;5052690;28;20017;-76
2021/07/02 10:13:24;;;;;;;3.70;3.10;;;19.80;87.80;;;;;;5053801;28;20367;-77
2021/07/02 10:15:50;;;;;;;6.35;3.40;;;19.70;87.90;;;;;;5053630;28;20048;-76
2021/07/02 10:18:17;;;;;;;5.13;3.17;;;19.60;88.00;;;;;;5053637;28;20017;-76
2021/07/02 10:20:44;;;;;;;6.60;3.80;;;19.60;87.90;;;;;;5053783;28;20029;-76
2021/07/02 10:23:12;;;;;;;3.65;3.00;;;19.50;88.00;;;;;;5068555;28;20017;-75
2021/07/02 10:25:41;;;;;;;4.90;3.25;;;19.50;88.10;;;;;;5053655;28;20029;-75
2021/07/02 10:28:09;;;;;;;4.13;2.80;;;19.50;88.10;;;;;;5052320;28;20025;-75
2021/07/02 10:30:34;;;;;;;6.75;4.35;;;19.50;87.90;;;;;;5053495;28;20381;-77
2021/07/02 10:33:00;;;;;;;5.20;3.47;;;19.40;87.90;;;;;;5053619;28;20521;-76
2021/07/02 10:35:33;;;;;;;5.10;3.35;;;19.30;88.20;;;;;;5052879;28;20420;-75
2021/07/02 10:37:59;;;;;;;4.60;2.97;;;19.30;88.10;;;;;;5053580;28;20029;-75
2021/07/02 10:40:44;;;;;;;5.03;3.10;;;19.40;88.20;;;;;;5053348;28;20478;-76
2021/07/02 10:43:11;;;;;;;4.75;3.05;;;19.50;88.00;;;;;;5053154;28;20041;-76
2021/07/02 10:45:39;;;;;;;4.15;3.22;;;19.60;87.90;;;;;;5053206;28;20526;-77
2021/07/02 10:48:05;;;;;;;3.33;2.88;;;19.60;88.40;;;;;;5053305;28;20446;-77
2021/07/02 10:50:43;;;;;;;4.78;4.03;;;19.60;87.70;;;;;;5052892;28;20027;-77
2021/07/02 10:53:25;;;;;;;6.18;3.70;;;19.60;87.30;;;;;;5053231;28;20021;-76
2021/07/02 10:55:51;;;;;;;6.20;3.08;;;19.40;87.70;;;;;;5053063;28;20039;-76
2021/07/02 10:58:17;;;;;;;4.30;3.03;;;19.20;88.20;;;;;;5052970;28;20017;-76
2021/07/02 11:01:11;;;;;;;4.72;3.47;;;19.10;88.60;;;;;;5051836;28;20108;-76
2021/07/02 11:03:37;;;;;;;4.47;2.67;;;19.20;88.40;;;;;;5052853;28;20032;-73
2021/07/02 11:06:36;;;;;;;4.28;3.22;;;19.30;88.30;;;;;;5052373;28;20377;-75
2021/07/02 11:09:02;;;;;;;3.45;2.20;;;19.40;88.10;;;;;;5052827;28;20083;-76
2021/07/02 11:12:08;;;;;;;3.03;2.22;;;19.30;88.20;;;;;;5053056;28;20025;-77
2021/07/02 11:15:06;;;;;;;3.03;2.10;;;19.50;88.10;;;;;;5052724;28;20021;-77
2021/07/02 11:17:46;;;;;;;2.88;2.33;;;19.60;87.90;;;;;;5052974;28;20488;-75
2021/07/02 11:20:17;;;;;;;3.50;2.17;;;19.60;87.80;;;;;;5052425;28;20021;-77
2021/07/02 11:22:47;;;;;;;4.85;2.97;;;19.60;87.90;;;;;;5052846;28;20025;-78
2021/07/02 11:25:24;;;;;;;4.40;2.90;;;19.60;87.70;;;;;;5052771;28;20114;-76
2021/07/02 11:27:54;;;;;;;4.70;2.53;;;19.50;87.90;;;;;;5052774;28;20025;-76
2021/07/02 11:32:57;;;;;;;4.45;2.85;;;19.30;88.20;;;;;;5052820;28;20025;-77
2021/07/02 11:35:30;;;;;;;3.90;2.47;;;19.30;88.30;;;;;;5052010;28;20431;-76
2021/07/02 11:40:32;;;;;;;3.42;2.10;;;19.50;87.80;;;;;;5052569;28;20033;-77
2021/07/02 11:42:59;;;;;;;2.97;2.17;;;19.60;87.60;;;;;;5052718;28;20049;-75
2021/07/02 11:45:44;;;;;;;3.97;3.05;;;19.70;87.50;;;;;;5034919;28;20018;-76
2021/07/02 11:48:28;;;;;;;4.72;3.47;;;19.80;87.10;;;;;;5052107;28;20481;-77
2021/07/02 11:50:55;;;;;;;4.07;3.03;;;19.80;87.10;;;;;;5034757;28;20017;-77
2021/07/02 11:53:32;;;;;;;4.30;2.90;;;19.70;87.30;;;;;;5052755;28;20039;-77
2021/07/02 11:56:06;;;;;;;3.75;2.42;;;19.60;87.50;;;;;;5052660;28;20036;-77
2021/07/02 11:58:43;;;;;;;4.28;2.92;;;19.50;87.80;;;;;;5052660;28;20067;-76
2021/07/02 12:01:10;;;;;;;4.03;2.55;;;19.50;87.80;;;;;;5052486;28;20041;-77
2021/07/02 12:03:37;;;;;;;5.13;3.55;;;19.40;88.10;;;;;;5052120;28;20013;-79
2021/07/02 12:06:04;;;;;;;5.10;3.28;;;19.20;88.10;;;;;;5034671;28;20495;-76
2021/07/02 12:08:31;;;;;;;5.85;3.88;;;19.00;88.30;;;;;;5035235;28;20108;-77
2021/07/02 12:11:05;;;;;;;5.50;2.95;;;19.00;88.70;;;;;;5052274;28;20083;-76
2021/07/02 12:13:32;;;;;;;4.90;2.65;;;19.00;88.80;;;;;;5052606;28;20021;-77
2021/07/02 12:16:09;;;;;;;3.72;2.25;;;19.10;88.60;;;;;;5052332;28;20039;-76
2021/07/02 12:18:36;;;;;;;2.90;2.10;;;19.30;88.30;;;;;;5051981;28;20096;-77
2021/07/02 12:21:07;;;;;;;3.20;2.50;;;19.60;87.90;;;;;;5053248;28;20111;-77
2021/07/02 12:23:35;;;;;;;2.78;2.10;;;19.80;87.50;;;;;;5056017;28;20052;-76
2021/07/02 12:26:25;;;;;;;4.10;2.65;;;19.80;87.50;;;;;;5056127;28;20056;-76
2021/07/02 12:29:04;;;;;;;3.25;2.10;;;19.90;87.20;;;;;;5056055;28;20017;-77
2021/07/02 12:31:33;;;;;;;3.22;1.98;;;19.90;87.40;;;;;;5055540;28;20554;-77
2021/07/02 12:34:00;;;;;;;2.47;1.80;;;19.90;87.50;;;;;;5055759;28;20029;-77
2021/07/02 12:36:27;;;;;;;2.42;1.60;;;19.90;88.20;;;;;;5055685;28;20116;-77
2021/07/02 12:39:12;;;;;;;3.30;2.60;;;19.90;87.50;;;;;;5055902;28;20055;-75
2021/07/02 12:41:46;;;;;;;2.95;1.90;;;20.00;87.30;;;;;;5055989;28;20381;-77
2021/07/02 12:44:23;;;;;;;3.38;3.08;;;20.00;87.50;;;;;;5037541;28;20459;-78
2021/07/02 12:46:50;;;;;;;2.67;2.00;;;20.10;87.30;;;;;;5037350;28;20017;-77
2021/07/02 12:49:41;;;;;;;3.72;1.90;;;20.20;87.30;;;;;;5055611;28;20020;-77
2021/07/02 12:54:47;;;;;;;2.33;1.90;;;20.60;86.70;;;;;;5055392;28;20040;-77
2021/07/02 12:57:27;;;;;;;2.03;1.42;;;20.80;86.60;;;;;;5037533;28;20432;-76
2021/07/02 12:59:53;;;;;;;;;;;20.90;86.40;;;;;;5056022;28;20108;-75
2021/07/02 13:02:26;;;;;;;2.33;1.52;;;20.80;86.50;;;;;;5054918;28;19909;-76
2021/07/02 13:04:52;;;;;;;2.42;1.77;;;20.80;86.50;;;;;;5055399;28;20029;-77